Time;durP1;ratioP1;P1;durP2;ratioP2;P2;SDS_P1;SDS_P2;PMS_P1;PMS_P2;Temp;Humidity;BMP_temperature;BMP_pressure;BME280_temperature;BME280_humidity;BME280_pressure;Samples;Min_cycle;Max_cycle;Signal;HPM_P1;HPM_P2
2022/05/07 00:00:44;;;;;;;4.68;3.15;;;15.00;99.90;;;;;;5073708;28;20377;-84
2022/05/07 00:03:17;;;;;;;7.40;2.60;;;15.00;99.90;;;;;;5073165;28;20025;-84
2022/05/07 00:05:42;;;;;;;8.40;2.55;;;15.00;99.90;;;;;;5073077;28;20357;-84
2022/05/07 00:08:17;;;;;;;7.78;2.63;;;15.00;99.90;;;;;;5072715;28;20031;-84
2022/05/07 00:10:43;;;;;;;8.40;2.88;;;15.00;99.90;;;;;;5073335;28;20028;-84
2022/05/07 00:13:46;;;;;;;5.47;2.65;;;15.00;99.90;;;;;;5072906;28;20500;-84
2022/05/07 00:19:07;;;;;;;5.20;2.58;;;15.10;99.90;;;;;;5073043;28;20031;-84
2022/05/07 00:21:33;;;;;;;5.22;2.97;;;15.10;99.90;;;;;;5073000;28;20029;-84
2022/05/07 00:23:59;;;;;;;6.10;2.55;;;15.10;99.90;;;;;;5072467;28;20070;-84
2022/05/07 00:26:25;;;;;;;7.10;2.72;;;15.10;99.90;;;;;;5072863;28;20021;-84
2022/05/07 00:28:53;;;;;;;7.50;2.30;;;15.20;99.90;;;;;;5072879;28;20077;-84
2022/05/07 00:31:18;;;;;;;5.88;2.13;;;15.20;99.90;;;;;;5072763;28;20099;-84
2022/05/07 00:33:55;;;;;;;10.35;2.92;;;15.20;99.90;;;;;;5071683;28;20108;-84
2022/05/07 00:36:21;;;;;;;4.72;2.28;;;15.20;99.90;;;;;;5071307;28;20044;-83
2022/05/07 00:38:54;;;;;;;5.22;2.60;;;15.20;99.90;;;;;;5072436;28;20063;-84
2022/05/07 00:41:19;;;;;;;4.57;2.63;;;15.20;99.90;;;;;;5071357;28;20034;-83
2022/05/07 00:43:53;;;;;;;5.90;2.22;;;15.20;99.90;;;;;;5071344;28;20115;-84
2022/05/07 00:46:23;;;;;;;5.32;2.58;;;15.10;99.90;;;;;;5071861;28;20515;-84
2022/05/07 00:48:49;;;;;;;9.93;2.50;;;15.10;99.90;;;;;;5071294;28;20023;-84
2022/05/07 00:54:02;;;;;;;6.55;2.78;;;15.10;99.90;;;;;;5072459;28;20380;-84
2022/05/07 00:56:27;;;;;;;4.40;2.17;;;15.00;99.90;;;;;;5072584;28;20025;-84
2022/05/07 00:58:58;;;;;;;7.05;2.97;;;15.00;99.90;;;;;;5072531;28;20029;-83
2022/05/07 01:01:25;;;;;;;9.82;2.88;;;15.00;99.90;;;;;;5072468;28;20025;-84
2022/05/07 01:03:52;;;;;;;5.88;2.88;;;14.90;99.90;;;;;;5072562;28;20078;-84
2022/05/07 01:06:18;;;;;;;5.45;2.63;;;14.90;99.90;;;;;;5072412;28;20079;-83
2022/05/07 01:09:02;;;;;;;6.90;2.55;;;15.00;99.90;;;;;;5072231;28;20070;-84
2022/05/07 01:11:28;;;;;;;7.25;2.92;;;15.00;99.90;;;;;;5072354;28;20021;-84
2022/05/07 01:13:56;;;;;;;5.35;2.63;;;15.00;99.90;;;;;;5072327;28;20059;-84
2022/05/07 01:16:23;;;;;;;4.88;2.08;;;15.00;99.90;;;;;;5072265;28;20021;-84
2022/05/07 01:18:50;;;;;;;6.90;2.35;;;15.00;99.90;;;;;;5072436;28;20020;-84
2022/05/07 01:21:17;;;;;;;8.02;2.85;;;15.00;99.90;;;;;;5072381;28;20025;-83
2022/05/07 01:23:47;;;;;;;7.40;2.38;;;15.00;99.90;;;;;;5071842;28;20021;-84
2022/05/07 01:26:13;;;;;;;6.32;2.60;;;15.00;99.90;;;;;;5072310;28;20017;-84
2022/05/07 01:28:40;;;;;;;7.68;3.47;;;15.00;99.90;;;;;;5072153;28;20021;-83
2022/05/07 01:31:06;;;;;;;8.18;2.75;;;15.00;99.90;;;;;;5072392;28;20071;-83
2022/05/07 01:33:39;;;;;;;7.00;2.80;;;14.90;99.90;;;;;;5072097;28;20021;-84
2022/05/07 01:36:11;;;;;;;6.22;2.40;;;14.90;99.90;;;;;;5072128;28;20020;-83
2022/05/07 01:39:05;;;;;;;4.30;2.60;;;14.90;99.90;;;;;;5071821;28;20017;-84
2022/05/07 01:41:31;;;;;;;4.75;2.47;;;14.90;99.90;;;;;;5052111;28;20056;-84
2022/05/07 01:43:58;;;;;;;5.47;2.70;;;14.80;99.90;;;;;;5052025;28;20029;-84
2022/05/07 01:49:09;;;;;;;10.93;2.97;;;14.80;99.90;;;;;;5052256;28;20036;-84
2022/05/07 01:51:35;;;;;;;5.40;3.00;;;14.80;99.90;;;;;;5052009;28;20032;-83
2022/05/07 01:54:09;;;;;;;5.65;2.92;;;14.80;99.90;;;;;;5051575;28;20518;-83
2022/05/07 01:56:34;;;;;;;6.90;3.05;;;14.80;99.90;;;;;;5052831;28;20047;-84
2022/05/07 01:59:38;;;;;;;5.10;2.50;;;14.80;99.90;;;;;;5055845;28;20025;-84
2022/05/07 02:02:03;;;;;;;11.02;2.88;;;14.80;99.90;;;;;;5055539;28;20370;-84
2022/05/07 02:04:56;;;;;;;9.32;2.92;;;14.80;99.90;;;;;;5054185;28;20032;-84
2022/05/07 02:07:21;;;;;;;4.50;3.30;;;14.70;99.90;;;;;;5053984;28;20028;-83
2022/05/07 02:09:48;;;;;;;7.28;3.05;;;14.70;99.90;;;;;;5055115;28;20107;-83
2022/05/07 02:12:14;;;;;;;7.60;2.92;;;14.70;99.90;;;;;;5054016;28;20017;-84
2022/05/07 02:14:54;;;;;;;5.90;3.42;;;14.60;99.90;;;;;;5055177;28;20024;-84
2022/05/07 02:17:20;;;;;;;9.30;3.67;;;14.70;99.90;;;;;;5055114;28;20104;-83
2022/05/07 02:19:47;;;;;;;9.88;2.92;;;14.60;99.90;;;;;;5055216;28;20108;-84
2022/05/07 02:22:12;;;;;;;4.95;3.03;;;14.60;99.90;;;;;;5055145;28;20524;-83
2022/05/07 02:24:39;;;;;;;13.57;3.17;;;14.60;99.90;;;;;;5054718;28;20052;-83
2022/05/07 02:27:04;;;;;;;6.63;2.72;;;14.60;99.90;;;;;;5055093;28;20021;-83
2022/05/07 02:29:36;;;;;;;7.70;4.13;;;14.60;99.90;;;;;;5055056;28;20017;-84
2022/05/07 02:32:03;;;;;;;5.03;3.03;;;14.50;99.90;;;;;;5054946;28;20017;-83
2022/05/07 02:34:30;;;;;;;3.92;2.92;;;14.50;99.90;;;;;;5054940;28;20127;-83
2022/05/07 02:36:56;;;;;;;12.63;3.47;;;14.50;99.90;;;;;;5054977;28;20491;-84
2022/05/07 02:39:22;;;;;;;12.45;3.30;;;14.50;99.90;;;;;;5055733;28;20048;-84
2022/05/07 02:44:33;;;;;;;11.50;3.10;;;14.50;99.90;;;;;;5074794;28;20145;-83
2022/05/07 02:46:59;;;;;;;13.98;5.13;;;14.50;99.90;;;;;;5074259;28;20036;-86
2022/05/07 02:49:26;;;;;;;6.93;3.28;;;14.50;99.90;;;;;;5074741;28;20021;-85
2022/05/07 02:51:52;;;;;;;9.88;3.72;;;14.40;99.90;;;;;;5074822;28;20020;-85
2022/05/07 02:54:19;;;;;;;7.45;3.22;;;14.50;99.90;;;;;;5072872;28;20025;-86
2022/05/07 02:56:44;;;;;;;9.80;3.55;;;14.40;99.90;;;;;;5074452;28;20043;-85
2022/05/07 02:59:18;;;;;;;5.10;3.15;;;14.40;99.90;;;;;;5074622;28;20028;-86
2022/05/07 03:01:43;;;;;;;7.13;3.15;;;14.40;99.90;;;;;;5074484;28;20029;-87
2022/05/07 03:04:32;;;;;;;7.03;3.03;;;14.40;99.90;;;;;;5074301;28;20031;-85
2022/05/07 03:06:58;;;;;;;6.03;3.05;;;14.40;99.90;;;;;;5073017;28;20028;-85
2022/05/07 03:09:24;;;;;;;6.70;2.95;;;14.40;99.90;;;;;;5073300;28;20020;-85
2022/05/07 03:11:50;;;;;;;7.07;3.40;;;14.40;99.90;;;;;;5074300;28;20024;-86
2022/05/07 03:14:16;;;;;;;6.68;2.88;;;14.40;99.90;;;;;;5074294;28;20388;-86
2022/05/07 03:16:42;;;;;;;5.65;2.70;;;14.30;99.90;;;;;;5073950;28;20024;-86
2022/05/07 03:19:14;;;;;;;18.67;3.75;;;14.30;99.90;;;;;;5074098;28;20021;-85
2022/05/07 03:21:39;;;;;;;8.07;3.10;;;14.40;99.90;;;;;;5073954;28;20103;-85
2022/05/07 03:24:16;;;;;;;8.32;3.38;;;14.40;99.90;;;;;;5073684;28;20099;-85
2022/05/07 03:26:42;;;;;;;7.57;3.22;;;14.40;99.90;;;;;;5073665;28;20036;-85
2022/05/07 03:29:14;;;;;;;9.05;3.25;;;14.40;99.90;;;;;;5073942;28;20380;-85
2022/05/07 03:31:39;;;;;;;9.13;3.60;;;14.40;99.90;;;;;;5073728;28;20099;-85
2022/05/07 03:34:16;;;;;;;4.05;2.70;;;14.40;99.90;;;;;;5073758;28;20124;-86
2022/05/07 03:36:42;;;;;;;6.85;3.58;;;14.40;99.90;;;;;;5072313;28;20020;-86
2022/05/07 03:39:12;;;;;;;11.60;3.15;;;14.40;99.90;;;;;;5073656;28;20027;-85
2022/05/07 03:41:37;;;;;;;5.60;3.35;;;14.40;99.90;;;;;;5073597;28;20043;-86
2022/05/07 03:44:07;;;;;;;4.72;2.78;;;14.40;99.90;;;;;;5072566;28;20477;-85
2022/05/07 03:46:33;;;;;;;9.63;3.40;;;14.40;99.90;;;;;;5073535;28;20037;-86
2022/05/07 03:49:16;;;;;;;5.80;3.45;;;14.40;99.90;;;;;;5073403;28;20408;-85
2022/05/07 03:54:48;;;;;;;5.75;2.53;;;14.40;99.90;;;;;;5073283;28;20082;-85
2022/05/07 03:57:16;;;;;;;5.15;2.78;;;14.40;99.90;;;;;;5072067;28;20396;-83
2022/05/07 04:00:04;;;;;;;9.82;3.83;;;14.40;99.90;;;;;;5073167;28;20389;-84
2022/05/07 04:02:32;;;;;;;8.38;2.78;;;14.40;99.90;;;;;;5071920;28;20024;-84
2022/05/07 04:05:06;;;;;;;6.15;2.90;;;14.40;99.90;;;;;;5073290;28;20102;-84
2022/05/07 04:07:32;;;;;;;3.67;2.67;;;14.40;99.90;;;;;;5071643;28;20074;-83
2022/05/07 04:09:59;;;;;;;8.77;2.88;;;14.40;99.90;;;;;;5071822;28;20108;-84
2022/05/07 04:12:24;;;;;;;8.15;2.92;;;14.40;99.90;;;;;;5073123;28;20021;-84
2022/05/07 04:15:03;;;;;;;4.35;2.78;;;14.50;99.90;;;;;;5071757;28;20029;-84
2022/05/07 04:17:28;;;;;;;9.70;2.95;;;14.60;99.90;;;;;;5073019;28;20024;-84
2022/05/07 04:19:54;;;;;;;7.90;2.90;;;14.50;99.90;;;;;;5072292;28;20052;-84
2022/05/07 04:22:20;;;;;;;6.55;2.50;;;14.60;99.90;;;;;;5071188;28;20031;-84
2022/05/07 04:24:47;;;;;;;3.78;2.70;;;14.60;99.90;;;;;;5072913;28;20056;-84
2022/05/07 04:27:12;;;;;;;9.65;3.00;;;14.60;99.90;;;;;;5071544;28;20040;-84
2022/05/07 04:29:39;;;;;;;6.35;2.47;;;14.70;99.90;;;;;;5071616;28;20033;-84
2022/05/07 04:32:05;;;;;;;8.25;2.90;;;14.70;99.90;;;;;;5072907;28;20024;-83
2022/05/07 04:34:30;;;;;;;5.15;2.50;;;14.80;99.90;;;;;;5072903;28;20032;-84
2022/05/07 04:36:56;;;;;;;6.03;2.55;;;14.80;99.90;;;;;;5072998;28;20028;-84
2022/05/07 04:39:22;;;;;;;4.22;2.35;;;14.80;99.90;;;;;;5071247;28;20078;-83
2022/05/07 04:41:47;;;;;;;5.20;2.60;;;14.80;99.90;;;;;;5072676;28;20036;-83
2022/05/07 04:44:13;;;;;;;4.63;2.63;;;14.80;99.90;;;;;;5071357;28;20039;-84
2022/05/07 04:46:41;;;;;;;6.72;3.20;;;14.90;99.90;;;;;;5072521;28;20112;-84
2022/05/07 04:49:14;;;;;;;6.70;2.80;;;14.90;99.90;;;;;;5072681;28;20055;-84
2022/05/07 04:51:40;;;;;;;4.63;2.72;;;14.90;99.90;;;;;;5072499;28;20157;-83
2022/05/07 04:54:07;;;;;;;11.43;3.45;;;15.00;99.90;;;;;;5072309;28;20508;-84
2022/05/07 04:56:32;;;;;;;5.82;2.45;;;15.00;99.90;;;;;;5072420;28;20024;-84
2022/05/07 04:58:58;;;;;;;5.80;2.75;;;15.00;99.90;;;;;;5072401;28;20032;-84
2022/05/07 05:01:23;;;;;;;7.00;2.72;;;15.00;99.90;;;;;;5072630;28;20354;-84
2022/05/07 05:03:58;;;;;;;3.83;2.10;;;15.10;99.90;;;;;;5072371;28;20027;-84
2022/05/07 05:06:24;;;;;;;11.70;3.90;;;15.10;99.90;;;;;;5072437;28;20101;-83
2022/05/07 05:08:49;;;;;;;15.38;7.15;;;15.10;99.90;;;;;;5072104;28;20063;-84
2022/05/07 05:11:15;;;;;;;15.95;5.60;;;15.20;99.90;;;;;;5072447;28;20024;-84
2022/05/07 05:13:41;;;;;;;14.45;5.68;;;15.20;99.90;;;;;;5072263;28;20035;-84
2022/05/07 05:16:07;;;;;;;19.15;6.40;;;15.30;99.90;;;;;;5072296;28;20020;-84
2022/05/07 05:18:34;;;;;;;8.68;3.08;;;15.30;99.90;;;;;;5071142;28;20123;-84
2022/05/07 05:21:00;;;;;;;8.55;4.38;;;15.30;99.90;;;;;;5071910;28;20024;-83
2022/05/07 05:23:30;;;;;;;10.57;4.32;;;15.40;99.90;;;;;;5070326;28;20036;-84
2022/05/07 05:25:56;;;;;;;7.95;4.03;;;15.50;99.90;;;;;;5072260;28;20025;-84
2022/05/07 05:28:24;;;;;;;10.13;4.65;;;15.50;99.90;;;;;;5072077;28;20408;-84
2022/05/07 05:30:51;;;;;;;6.43;4.05;;;15.50;99.90;;;;;;5070683;28;20107;-84
2022/05/07 05:33:26;;;;;;;5.25;2.75;;;15.60;99.90;;;;;;5075869;28;20013;-84
2022/05/07 05:35:52;;;;;;;11.98;2.83;;;15.60;99.90;;;;;;5074837;28;20059;-84
2022/05/07 05:38:19;;;;;;;9.05;3.08;;;15.70;99.90;;;;;;5074459;28;20060;-84
2022/05/07 05:40:49;;;;;;;12.85;3.10;;;15.80;99.90;;;;;;5075860;28;20072;-84
2022/05/07 05:43:15;;;;;;;7.60;2.95;;;15.90;99.90;;;;;;5075969;28;20362;-84
2022/05/07 05:45:50;;;;;;;6.85;3.33;;;15.80;99.90;;;;;;5075763;28;20028;-84
2022/05/07 05:48:16;;;;;;;;;;;15.90;99.90;;;;;;5076190;28;20043;-84
2022/05/07 05:50:45;;;;;;;9.15;3.55;;;15.90;99.90;;;;;;5074349;28;19908;-84
2022/05/07 05:53:11;;;;;;;10.20;2.72;;;16.00;99.90;;;;;;5075329;28;20503;-84
2022/05/07 05:55:41;;;;;;;6.43;3.13;;;16.10;99.90;;;;;;5075710;28;20024;-84
2022/05/07 05:58:06;;;;;;;7.43;3.58;;;16.10;99.90;;;;;;5075630;28;20060;-84
2022/05/07 06:00:33;;;;;;;6.35;3.83;;;16.20;99.90;;;;;;5075620;28;20029;-84
2022/05/07 06:02:58;;;;;;;11.68;3.45;;;16.20;99.90;;;;;;5074165;28;20131;-84
2022/05/07 06:05:26;;;;;;;9.48;4.13;;;16.20;99.90;;;;;;5075885;28;20572;-84
2022/05/07 06:07:51;;;;;;;8.10;4.13;;;16.20;99.90;;;;;;5075186;28;20411;-84
2022/05/07 06:10:18;;;;;;;7.95;4.03;;;16.20;99.90;;;;;;5075350;28;20065;-84
2022/05/07 06:12:44;;;;;;;15.45;6.28;;;16.40;99.90;;;;;;5075531;28;20024;-84
2022/05/07 06:15:12;;;;;;;11.25;6.13;;;16.50;99.90;;;;;;5074143;28;20420;-84
2022/05/07 06:17:37;;;;;;;12.35;5.97;;;16.50;99.90;;;;;;5075221;28;20021;-85
2022/05/07 06:20:03;;;;;;;10.98;5.45;;;16.70;99.90;;;;;;5075150;28;20491;-84
2022/05/07 06:22:29;;;;;;;19.42;7.50;;;16.70;99.90;;;;;;5073734;28;20352;-84
2022/05/07 06:27:41;;;;;;;;;;;16.90;99.90;;;;;;5075499;28;20031;-84
2022/05/07 06:30:07;;;;;;;14.73;7.40;;;17.00;99.90;;;;;;5075071;28;19904;-84
2022/05/07 06:32:35;;;;;;;10.88;6.07;;;17.00;99.90;;;;;;5075021;28;20033;-84
2022/05/07 06:35:06;;;;;;;14.85;6.43;;;17.00;99.90;;;;;;5074929;28;20025;-85
2022/05/07 06:37:33;;;;;;;18.65;10.05;;;17.00;99.90;;;;;;5074538;28;20025;-84
2022/05/07 06:40:00;;;;;;;15.15;9.40;;;17.00;99.90;;;;;;5073239;28;20037;-84
2022/05/07 06:42:25;;;;;;;11.75;7.50;;;17.10;99.90;;;;;;5074540;28;20028;-85
2022/05/07 06:45:04;;;;;;;12.20;6.88;;;17.10;99.90;;;;;;5074016;28;20046;-85
2022/05/07 06:47:30;;;;;;;12.50;6.93;;;17.10;99.90;;;;;;5073384;28;20120;-84
2022/05/07 06:49:57;;;;;;;12.35;6.65;;;17.10;99.90;;;;;;5074730;28;20399;-85
2022/05/07 06:52:22;;;;;;;15.30;8.02;;;17.20;99.90;;;;;;5074171;28;20012;-85
2022/05/07 06:54:50;;;;;;;15.18;7.65;;;17.30;99.90;;;;;;5073454;28;20119;-84
2022/05/07 06:57:15;;;;;;;13.02;7.30;;;17.40;99.90;;;;;;5074573;28;20476;-85
2022/05/07 06:59:44;;;;;;;18.38;7.97;;;17.50;99.90;;;;;;5073181;28;20029;-85
2022/05/07 07:02:10;;;;;;;12.95;6.93;;;17.70;99.90;;;;;;5074498;28;20099;-84
2022/05/07 07:04:35;;;;;;;14.73;7.75;;;17.70;99.90;;;;;;5074461;28;20063;-84
2022/05/07 07:07:00;;;;;;;17.48;7.75;;;17.70;99.90;;;;;;5073942;28;20024;-85
2022/05/07 07:09:28;;;;;;;12.57;7.10;;;17.70;99.90;;;;;;5074367;28;20032;-84
2022/05/07 07:11:53;;;;;;;12.27;6.88;;;17.70;99.90;;;;;;5074612;28;20017;-85
2022/05/07 07:14:20;;;;;;;8.68;5.25;;;17.60;99.90;;;;;;5074010;28;20020;-84
2022/05/07 07:16:46;;;;;;;13.80;5.70;;;17.60;99.90;;;;;;5074048;28;20492;-85
2022/05/07 07:19:24;;;;;;;12.82;5.20;;;17.50;99.90;;;;;;5074287;28;20028;-85
2022/05/07 07:21:51;;;;;;;8.13;5.65;;;17.50;99.90;;;;;;5073665;28;20155;-85
2022/05/07 07:24:26;;;;;;;8.45;5.03;;;17.50;99.90;;;;;;5073957;28;20031;-85
2022/05/07 07:26:51;;;;;;;8.07;4.90;;;17.40;99.90;;;;;;5073910;28;20029;-86
2022/05/07 07:29:23;;;;;;;11.13;5.97;;;17.50;99.90;;;;;;5072642;28;20594;-85
2022/05/07 07:31:48;;;;;;;9.30;6.07;;;17.50;99.90;;;;;;5073784;28;20107;-85
2022/05/07 07:34:14;;;;;;;9.40;6.22;;;17.50;99.90;;;;;;5072487;28;20123;-85
2022/05/07 07:36:39;;;;;;;11.25;6.55;;;17.50;99.90;;;;;;5073200;28;20023;-85
2022/05/07 07:39:26;;;;;;;10.57;6.30;;;17.60;99.90;;;;;;5073894;28;20095;-84
2022/05/07 07:41:51;;;;;;;11.63;6.03;;;17.60;99.90;;;;;;5073659;28;20032;-85
2022/05/07 07:44:19;;;;;;;16.63;6.45;;;17.60;99.90;;;;;;5073599;28;20028;-85
2022/05/07 07:49:29;;;;;;;13.88;5.63;;;17.70;99.90;;;;;;5073871;28;20077;-84
2022/05/07 07:51:56;;;;;;;10.13;5.13;;;17.60;99.90;;;;;;5071936;28;20775;-85
2022/05/07 07:54:35;;;;;;;9.25;6.28;;;17.60;99.90;;;;;;5073005;28;20021;-85
2022/05/07 07:57:02;;;;;;;14.63;6.18;;;17.70;99.90;;;;;;5073307;28;20044;-85
2022/05/07 07:59:48;;;;;;;13.25;6.45;;;17.90;99.90;;;;;;5073421;28;20451;-85
2022/05/07 08:02:13;;;;;;;10.43;6.72;;;17.90;99.90;;;;;;5073269;28;20389;-85
2022/05/07 08:04:57;;;;;;;10.48;6.85;;;17.90;99.90;;;;;;5073063;28;20033;-85
2022/05/07 08:12:57;;;;;;;18.17;9.00;;;17.80;99.90;;;;;;5073006;28;20059;-85
2022/05/07 08:15:29;;;;;;;12.38;6.93;;;17.90;99.90;;;;;;5072936;28;20453;-86
2022/05/07 08:17:55;;;;;;;13.30;7.57;;;18.00;99.90;;;;;;5072622;28;20029;-85
2022/05/07 08:20:22;;;;;;;13.77;7.82;;;18.10;99.90;;;;;;5072560;28;20472;-85
2022/05/07 08:22:48;;;;;;;10.48;7.22;;;18.10;99.90;;;;;;5072714;28;20035;-86
2022/05/07 08:25:26;;;;;;;21.15;8.57;;;18.10;99.90;;;;;;5072549;28;20025;-85
2022/05/07 08:27:51;;;;;;;18.52;8.63;;;18.10;99.90;;;;;;5071628;28;20035;-85
2022/05/07 08:30:19;;;;;;;16.30;7.97;;;18.10;99.90;;;;;;5072845;28;20468;-86
2022/05/07 08:32:44;;;;;;;16.95;8.20;;;18.10;99.90;;;;;;5073111;28;20056;-85
2022/05/07 08:35:37;;;;;;;24.67;9.38;;;18.20;99.90;;;;;;5071650;28;20388;-85
2022/05/07 08:38:03;;;;;;;15.50;7.82;;;18.30;99.90;;;;;;5068808;28;20028;-85
2022/05/07 08:40:29;;;;;;;18.42;10.20;;;18.40;99.90;;;;;;5068897;28;20047;-86
2022/05/07 08:43:06;;;;;;;14.93;7.68;;;18.50;99.90;;;;;;5072655;28;20024;-85
2022/05/07 08:45:33;;;;;;;12.32;6.68;;;18.50;99.90;;;;;;5072664;28;20016;-87
2022/05/07 08:48:08;;;;;;;11.90;6.78;;;18.50;99.90;;;;;;5072436;28;20389;-85
2022/05/07 08:50:34;;;;;;;11.60;7.03;;;18.50;99.90;;;;;;5072676;28;20040;-85
2022/05/07 08:53:09;;;;;;;15.73;7.97;;;18.60;99.90;;;;;;5072073;28;20313;-86
2022/05/07 08:55:34;;;;;;;10.70;6.50;;;18.60;99.90;;;;;;5072551;28;20020;-85
2022/05/07 08:58:01;;;;;;;13.65;6.82;;;18.60;99.90;;;;;;5071071;28;20604;-86
2022/05/07 09:00:28;;;;;;;10.70;5.93;;;18.60;99.90;;;;;;5072546;28;20021;-85
2022/05/07 09:02:57;;;;;;;8.77;6.30;;;18.60;99.90;;;;;;5072527;28;20025;-87
2022/05/07 09:05:35;;;;;;;18.25;7.13;;;18.70;99.90;;;;;;5072385;28;20028;-85
2022/05/07 09:08:02;;;;;;;10.38;6.63;;;18.70;99.90;;;;;;5075528;28;20098;-85
2022/05/07 09:10:32;;;;;;;15.15;6.72;;;18.70;99.90;;;;;;5076667;28;20376;-86
2022/05/07 09:13:16;;;;;;;8.25;5.28;;;18.90;99.90;;;;;;5076406;28;20021;-86
2022/05/07 09:15:58;;;;;;;9.60;4.97;;;19.00;99.90;;;;;;5076311;28;20019;-85
2022/05/07 09:18:25;;;;;;;7.75;5.15;;;18.90;99.90;;;;;;5076398;28;20025;-87
2022/05/07 09:21:19;;;;;;;8.65;4.50;;;19.00;99.90;;;;;;5076476;28;20056;-85
2022/05/07 09:24:16;;;;;;;8.98;4.13;;;19.10;99.90;;;;;;5076260;28;20027;-86
2022/05/07 09:26:57;;;;;;;6.05;4.20;;;19.10;99.90;;;;;;5073578;28;20400;-85
2022/05/07 09:29:27;;;;;;;7.03;3.97;;;19.20;99.90;;;;;;5076242;28;20021;-85
2022/05/07 09:32:06;;;;;;;6.45;4.03;;;19.20;99.90;;;;;;5076101;28;20024;-86
2022/05/07 09:37:20;;;;;;;10.23;4.68;;;19.30;99.90;;;;;;5075657;28;20487;-85
2022/05/07 09:40:06;;;;;;;14.40;4.80;;;19.40;99.90;;;;;;5075832;28;20029;-85
2022/05/07 09:42:33;;;;;;;6.05;3.65;;;19.50;99.90;;;;;;5075915;28;20064;-85
2022/05/07 09:45:03;;;;;;;7.57;3.90;;;19.40;99.90;;;;;;5074408;28;20033;-85
2022/05/07 09:47:30;;;;;;;3.53;3.10;;;19.40;99.90;;;;;;5075848;28;20158;-85
2022/05/07 09:58:13;;;;;;;7.20;4.15;;;19.40;99.90;;;;;;5075689;28;20074;-87
2022/05/07 10:01:08;;;;;;;6.75;4.55;;;19.50;99.90;;;;;;5075518;28;20406;-85
2022/05/07 10:03:46;;;;;;;7.13;4.47;;;19.50;99.90;;;;;;5075532;28;20067;-85
2022/05/07 10:06:30;;;;;;;13.77;5.13;;;19.50;99.90;;;;;;5074367;28;20029;-85
2022/05/07 10:09:40;;;;;;;7.88;3.80;;;19.50;99.90;;;;;;5075741;28;20519;-85
2022/05/07 10:12:07;;;;;;;5.85;3.10;;;19.40;99.90;;;;;;5075340;28;20028;-85
2022/05/07 10:14:42;;;;;;;7.32;3.22;;;19.20;99.90;;;;;;5074104;28;20028;-85
2022/05/07 10:17:12;;;;;;;3.75;2.88;;;19.20;99.90;;;;;;5075236;28;20021;-85
2022/05/07 10:19:39;;;;;;;4.18;2.75;;;19.00;99.90;;;;;;5075305;28;20376;-85
2022/05/07 10:22:23;;;;;;;5.30;2.97;;;18.90;99.90;;;;;;5074097;28;20028;-84
2022/05/07 10:25:14;;;;;;;5.25;2.80;;;18.90;99.90;;;;;;5075118;28;20039;-85
2022/05/07 10:27:42;;;;;;;2.85;2.47;;;18.80;99.90;;;;;;5074995;28;20077;-85
2022/05/07 10:30:12;;;;;;;5.15;2.92;;;18.80;99.90;;;;;;5075120;28;20043;-85
2022/05/07 10:33:07;;;;;;;4.88;3.28;;;18.80;99.90;;;;;;5074918;28;20020;-85
2022/05/07 10:35:55;;;;;;;7.30;3.63;;;18.80;99.90;;;;;;5074788;28;20043;-85
2022/05/07 10:38:37;;;;;;;3.60;2.63;;;18.90;99.90;;;;;;5073615;28;20068;-86
2022/05/07 10:41:19;;;;;;;7.97;2.95;;;18.90;99.90;;;;;;5074690;28;20044;-86
2022/05/07 10:44:07;;;;;;;5.50;2.45;;;18.90;99.90;;;;;;5074834;28;20075;-85
2022/05/07 10:46:43;;;;;;;5.35;2.50;;;18.70;99.90;;;;;;5074684;28;20034;-85
2022/05/07 10:49:11;;;;;;;4.70;2.53;;;18.80;99.90;;;;;;5073686;28;20361;-84
2022/05/07 10:51:37;;;;;;;5.53;3.10;;;18.90;99.90;;;;;;5074437;28;20024;-86
2022/05/07 10:54:26;;;;;;;4.78;2.42;;;18.90;99.90;;;;;;5073170;28;20039;-85
2022/05/07 10:56:54;;;;;;;7.95;3.47;;;18.80;99.90;;;;;;5073317;28;20024;-85
2022/05/07 10:59:26;;;;;;;5.30;2.63;;;18.90;99.90;;;;;;5073241;28;20082;-84
2022/05/07 11:02:08;;;;;;;5.40;3.28;;;19.10;99.90;;;;;;5073230;28;20028;-84
2022/05/07 11:04:44;;;;;;;9.82;3.35;;;19.20;99.90;;;;;;5073129;28;20365;-85
2022/05/07 11:07:29;;;;;;;11.00;3.92;;;19.40;99.90;;;;;;5074098;28;20042;-85
2022/05/07 11:09:55;;;;;;;8.20;4.15;;;19.60;99.90;;;;;;5074379;28;20025;-86
2022/05/07 11:12:28;;;;;;;5.32;3.45;;;19.80;99.90;;;;;;5074210;28;20469;-85
2022/05/07 11:14:54;;;;;;;6.32;3.45;;;19.90;99.90;;;;;;5074234;28;20031;-85
2022/05/07 11:17:33;;;;;;;3.72;2.85;;;20.00;99.90;;;;;;5074078;28;20067;-87
2022/05/07 11:19:59;;;;;;;9.27;4.00;;;20.00;99.90;;;;;;5074134;28;20024;-84
2022/05/07 11:22:30;;;;;;;11.95;4.57;;;20.10;99.90;;;;;;5074127;28;20492;-85
2022/05/07 11:24:58;;;;;;;7.40;4.25;;;20.20;99.90;;;;;;5074190;28;20382;-85
2022/05/07 11:27:31;;;;;;;8.95;4.03;;;20.30;99.90;;;;;;5072790;28;20025;-85
2022/05/07 11:29:58;;;;;;;8.65;4.43;;;20.40;99.90;;;;;;5073392;28;20024;-88
2022/05/07 11:32:55;;;;;;;7.90;4.15;;;20.50;99.90;;;;;;5074201;28;20028;-86
2022/05/07 11:35:24;;;;;;;6.68;4.78;;;20.60;99.90;;;;;;5072494;28;20016;-85
2022/05/07 11:38:12;;;;;;;10.52;4.57;;;20.60;99.90;;;;;;5072184;28;20397;-86
2022/05/07 11:40:55;;;;;;;9.85;5.15;;;20.60;99.90;;;;;;5073648;28;20489;-86
2022/05/07 11:46:25;;;;;;;6.38;4.15;;;20.60;99.90;;;;;;5073944;28;20553;-86
2022/05/07 11:48:51;;;;;;;5.63;3.67;;;20.60;99.90;;;;;;5072620;28;20435;-85
2022/05/07 11:51:31;;;;;;;7.35;3.65;;;20.60;99.90;;;;;;5073221;28;20044;-85
2022/05/07 11:54:07;;;;;;;7.70;4.13;;;20.60;99.90;;;;;;5073431;28;20035;-86
2022/05/07 11:56:32;;;;;;;8.43;5.07;;;20.70;99.90;;;;;;5073624;28;20380;-85
2022/05/07 11:59:00;;;;;;;11.43;4.85;;;20.80;99.40;;;;;;5073326;28;20028;-85
2022/05/07 12:01:28;;;;;;;6.50;4.82;;;20.70;95.90;;;;;;5073390;28;20031;-85
2022/05/07 12:04:08;;;;;;;5.35;3.75;;;20.50;99.90;;;;;;5073257;28;20082;-85
2022/05/07 12:06:34;;;;;;;4.40;3.00;;;20.30;99.90;;;;;;5072864;28;20381;-85
2022/05/07 12:09:13;;;;;;;5.03;3.42;;;20.20;99.90;;;;;;5073067;28;20029;-85
2022/05/07 12:11:41;;;;;;;6.82;3.05;;;20.10;99.90;;;;;;5073162;28;20096;-85
2022/05/07 12:14:07;;;;;;;5.95;3.00;;;20.00;99.90;;;;;;5073078;28;20029;-85
2022/05/07 12:19:27;;;;;;;7.47;3.05;;;19.90;99.90;;;;;;5073312;28;20108;-85
2022/05/07 12:30:06;;;;;;;9.10;3.67;;;19.40;99.90;;;;;;5072807;28;20031;-85
2022/05/07 12:32:49;;;;;;;7.22;3.67;;;19.30;99.90;;;;;;5072413;28;20043;-85
2022/05/07 12:35:15;;;;;;;9.35;4.47;;;19.20;99.90;;;;;;5072834;28;20490;-85
2022/05/07 12:37:47;;;;;;;10.07;4.53;;;19.10;99.90;;;;;;5072331;28;20107;-85
2022/05/07 12:40:35;;;;;;;7.00;3.20;;;19.10;99.90;;;;;;5072518;28;20029;-85
2022/05/07 12:43:01;;;;;;;6.85;3.80;;;19.10;99.90;;;;;;5072098;28;20035;-84
2022/05/07 12:45:26;;;;;;;10.55;3.75;;;19.00;99.90;;;;;;5072642;28;20029;-84
2022/05/07 12:47:53;;;;;;;8.90;3.58;;;19.10;99.90;;;;;;5072472;28;20055;-85
2022/05/07 12:50:20;;;;;;;12.70;3.50;;;19.20;99.90;;;;;;5072546;28;20105;-84
2022/05/07 12:52:46;;;;;;;6.28;3.78;;;19.50;99.90;;;;;;5072276;28;20028;-85
2022/05/07 12:55:17;;;;;;;5.30;2.75;;;19.70;99.90;;;;;;5072558;28;20033;-85
2022/05/07 12:57:43;;;;;;;5.30;2.70;;;19.80;99.90;;;;;;5072459;28;20403;-85
2022/05/07 13:00:11;;;;;;;4.65;2.88;;;20.00;99.90;;;;;;5072651;28;20031;-85
2022/05/07 13:02:38;;;;;;;9.98;3.80;;;20.20;99.90;;;;;;5072365;28;20024;-86
2022/05/07 13:05:17;;;;;;;8.05;3.10;;;20.40;99.90;;;;;;5071270;28;20082;-85
2022/05/07 13:07:43;;;;;;;5.28;2.00;;;20.40;99.90;;;;;;5072013;28;20044;-85
2022/05/07 13:10:12;;;;;;;8.32;3.03;;;20.30;99.90;;;;;;5072278;28;20021;-85
2022/05/07 13:12:39;;;;;;;5.32;3.45;;;20.30;99.90;;;;;;5071335;28;20112;-85
2022/05/07 13:15:19;;;;;;;4.45;2.13;;;20.20;99.90;;;;;;5072439;28;20103;-84
2022/05/07 13:17:45;;;;;;;6.90;2.65;;;20.10;99.90;;;;;;5072307;28;20060;-85
2022/05/07 13:20:11;;;;;;;3.22;1.85;;;20.00;99.90;;;;;;5072231;28;20542;-85
2022/05/07 13:22:38;;;;;;;3.83;2.38;;;20.00;99.90;;;;;;5072041;28;20040;-85
2022/05/07 13:25:09;;;;;;;4.18;2.53;;;19.80;99.90;;;;;;5072377;28;20074;-85
2022/05/07 13:27:34;;;;;;;3.65;2.22;;;19.80;99.90;;;;;;5072186;28;20033;-85
2022/05/07 13:30:04;;;;;;;4.43;2.47;;;19.70;99.90;;;;;;5072146;28;20025;-85
2022/05/07 13:32:30;;;;;;;7.55;3.22;;;19.70;99.90;;;;;;5072139;28;20012;-85
2022/05/07 13:35:08;;;;;;;4.95;3.35;;;19.60;99.90;;;;;;5071032;28;20112;-85
2022/05/07 13:37:34;;;;;;;6.05;3.40;;;19.50;99.90;;;;;;5070722;28;20024;-85
2022/05/07 13:40:18;;;;;;;8.15;2.40;;;19.40;99.90;;;;;;5071780;28;20040;-84
2022/05/07 13:42:44;;;;;;;6.05;2.40;;;19.40;99.90;;;;;;5071932;28;20475;-85
2022/05/07 13:45:11;;;;;;;10.48;2.78;;;19.30;99.90;;;;;;5072145;28;20098;-85
2022/05/07 13:47:38;;;;;;;2.90;2.28;;;19.30;99.90;;;;;;5070775;28;20040;-85
2022/05/07 13:50:05;;;;;;;4.28;2.85;;;19.30;99.90;;;;;;5072088;28;20021;-85
2022/05/07 13:52:37;;;;;;;4.05;3.22;;;19.30;99.90;;;;;;5071294;28;20025;-85